createdAt,value
2019-05-17T00:01:18.766Z,43.60
2019-05-17T00:03:47.316Z,43.70
2019-05-17T00:06:16.923Z,44.10
2019-05-17T00:09:07.018Z,44.20
2019-05-17T00:11:36.759Z,44.10
2019-05-17T00:14:06.296Z,44.50
2019-05-17T00:16:37.348Z,44.70
2019-05-17T00:19:07.314Z,44.70
2019-05-17T00:21:36.980Z,45.00
2019-05-17T00:24:06.713Z,45.10
2019-05-17T00:26:36.315Z,45.10
2019-05-17T00:29:06.879Z,45.30
2019-05-17T00:31:37.029Z,45.20
2019-05-17T00:34:07.268Z,45.30
2019-05-17T00:36:37.490Z,45.70
2019-05-17T00:39:07.599Z,46.10
2019-05-17T00:41:37.512Z,46.30
2019-05-17T00:44:06.460Z,46.60
2019-05-17T00:46:37.144Z,46.80
2019-05-17T00:49:06.540Z,47.20
2019-05-17T00:51:36.945Z,47.50
2019-05-17T00:54:06.875Z,47.60
2019-05-17T00:56:37.207Z,47.80
2019-05-17T00:59:07.448Z,47.90
2019-05-17T01:01:36.526Z,48.10
2019-05-17T01:04:06.810Z,48.40
2019-05-17T01:06:37.621Z,48.20
2019-05-17T01:09:07.913Z,48.20
2019-05-17T01:11:36.923Z,48.40
2019-05-17T01:14:06.835Z,48.40
2019-05-17T01:16:36.787Z,48.30
2019-05-17T01:19:06.795Z,48.50
2019-05-17T01:21:36.729Z,48.90
2019-05-17T01:24:06.830Z,49.00
2019-05-17T01:26:37.387Z,49.10
2019-05-17T01:29:06.696Z,49.00
2019-05-17T01:31:37.297Z,49.30
2019-05-17T01:34:07.341Z,49.30
2019-05-17T01:36:37.073Z,49.30
2019-05-17T01:39:15.255Z,49.50
2019-05-17T01:41:37.230Z,49.60
2019-05-17T01:44:07.499Z,49.60
2019-05-17T01:46:37.041Z,49.70
2019-05-17T01:49:06.871Z,49.80
2019-05-17T01:51:37.009Z,49.50
2019-05-17T01:54:06.859Z,49.90
2019-05-17T01:56:37.013Z,49.90
2019-05-17T01:59:06.810Z,49.90
2019-05-17T02:01:37.106Z,49.90
2019-05-17T02:04:06.638Z,50.20
2019-05-17T02:06:36.658Z,50.10
2019-05-17T02:09:07.066Z,50.40
2019-05-17T02:11:37.445Z,50.60
2019-05-17T02:14:06.957Z,50.70
2019-05-17T02:16:37.640Z,50.50
2019-05-17T02:19:06.689Z,50.60
2019-05-17T02:21:36.771Z,50.60
2019-05-17T02:24:07.955Z,50.80
2019-05-17T02:26:37.461Z,51.00
2019-05-17T02:29:06.295Z,51.80
2019-05-17T02:31:35.596Z,51.00
2019-05-17T02:34:04.522Z,51.00
2019-05-17T02:36:33.404Z,51.30
2019-05-17T02:39:03.562Z,51.50
2019-05-17T02:41:33.283Z,51.30
2019-05-17T02:44:02.903Z,51.40
2019-05-17T02:46:33.861Z,51.40
2019-05-17T02:49:03.128Z,51.60
2019-05-17T02:51:32.591Z,51.90
2019-05-17T02:54:04.090Z,52.10
2019-05-17T02:56:32.757Z,52.10
2019-05-17T02:59:03.572Z,52.10
2019-05-17T03:01:33.282Z,52.10
2019-05-17T03:04:03.786Z,52.60
2019-05-17T03:06:33.048Z,52.60
2019-05-17T03:09:03.488Z,52.50
2019-05-17T03:11:33.364Z,52.60
2019-05-17T03:14:04.022Z,52.60
2019-05-17T03:16:33.922Z,52.60
2019-05-17T03:19:04.139Z,52.70
2019-05-17T03:21:33.775Z,52.60
2019-05-17T03:24:04.217Z,52.60
2019-05-17T03:26:33.041Z,53.00
2019-05-17T03:29:03.264Z,53.00
2019-05-17T03:31:40.688Z,53.00
2019-05-17T03:34:06.468Z,52.90
2019-05-17T03:36:36.362Z,53.00
2019-05-17T03:39:03.940Z,53.00
2019-05-17T03:41:34.036Z,53.00
2019-05-17T03:44:03.485Z,53.00
2019-05-17T03:46:33.372Z,52.90
2019-05-17T03:49:03.762Z,52.70
2019-05-17T03:51:33.517Z,52.80
2019-05-17T03:54:03.068Z,52.60
2019-05-17T03:56:32.935Z,52.50
2019-05-17T03:59:03.799Z,52.80
2019-05-17T04:01:33.036Z,52.70
2019-05-17T04:04:02.963Z,52.70
2019-05-17T04:06:32.867Z,52.70
2019-05-17T04:09:03.644Z,52.80
2019-05-17T04:11:36.226Z,52.90
2019-05-17T04:14:03.164Z,52.90
2019-05-17T04:16:33.864Z,52.70
2019-05-17T04:19:03.071Z,52.80
2019-05-17T04:21:34.287Z,53.10
2019-05-17T04:24:03.191Z,53.70
2019-05-17T04:26:32.731Z,53.10
2019-05-17T04:29:03.492Z,53.40
2019-05-17T04:31:34.615Z,53.60
2019-05-17T04:34:03.180Z,53.60
2019-05-17T04:36:32.386Z,53.40
2019-05-17T04:39:02.383Z,53.60
2019-05-17T04:41:44.673Z,53.60
2019-05-17T04:44:02.788Z,54.00
2019-05-17T04:46:32.607Z,53.70
2019-05-17T04:49:02.982Z,53.50
2019-05-17T04:51:32.427Z,53.50
2019-05-17T04:54:03.499Z,53.70
2019-05-17T04:56:33.374Z,53.60
2019-05-17T04:59:03.287Z,53.70
2019-05-17T05:01:33.076Z,53.60
2019-05-17T05:04:03.528Z,53.50
2019-05-17T05:06:32.780Z,53.70
2019-05-17T05:09:02.548Z,53.40
2019-05-17T05:11:32.808Z,53.20
2019-05-17T05:14:02.830Z,53.10
2019-05-17T05:16:32.122Z,52.90
2019-05-17T05:19:02.930Z,52.50
2019-05-17T05:21:32.380Z,52.30
2019-05-17T05:24:02.495Z,52.30
2019-05-17T05:26:31.741Z,52.60
2019-05-17T05:29:02.158Z,52.70
2019-05-17T05:31:32.201Z,52.50
2019-05-17T05:34:01.907Z,52.10
2019-05-17T05:36:32.633Z,52.10
2019-05-17T05:39:02.351Z,52.30
2019-05-17T05:41:32.110Z,52.10
2019-05-17T05:44:01.817Z,52.10
2019-05-17T05:46:31.781Z,52.40
2019-05-17T05:49:01.706Z,52.20
2019-05-17T05:51:31.993Z,52.30
2019-05-17T05:54:01.762Z,52.10
2019-05-17T05:56:32.466Z,52.10
2019-05-17T05:59:02.710Z,52.00
2019-05-17T06:01:32.573Z,52.30
2019-05-17T06:04:02.694Z,51.70
2019-05-17T06:06:32.204Z,51.90
2019-05-17T06:09:02.887Z,52.10
2019-05-17T06:11:33.512Z,52.30
2019-05-17T06:14:02.734Z,52.50
2019-05-17T06:16:32.103Z,52.50
2019-05-17T06:19:02.383Z,52.50
2019-05-17T06:21:31.938Z,52.80
2019-05-17T06:24:02.591Z,52.60
2019-05-17T06:26:31.516Z,52.70
2019-05-17T06:29:02.574Z,52.90
2019-05-17T06:31:33.123Z,52.90
2019-05-17T06:34:02.000Z,53.00
2019-05-17T06:36:32.864Z,52.70
2019-05-17T06:39:02.246Z,52.60
2019-05-17T06:41:32.339Z,53.10
2019-05-17T06:44:02.962Z,52.90
2019-05-17T06:46:32.489Z,52.80
2019-05-17T06:49:03.040Z,52.60
2019-05-17T06:51:31.819Z,52.90
2019-05-17T06:54:01.782Z,52.90
2019-05-17T06:56:32.231Z,52.80
2019-05-17T06:59:00.668Z,53.00
2019-05-17T07:01:29.292Z,52.70
2019-05-17T07:04:00.095Z,52.70
2019-05-17T07:06:29.686Z,52.70
2019-05-17T07:08:58.235Z,52.80
2019-05-17T07:11:26.829Z,52.70
2019-05-17T07:13:55.377Z,52.40
2019-05-17T07:16:23.962Z,51.80
2019-05-17T07:18:52.510Z,51.40
2019-05-17T07:21:21.129Z,51.50
2019-05-17T07:23:49.926Z,51.60
2019-05-17T07:28:59.423Z,51.10
2019-05-17T07:31:29.806Z,51.30
2019-05-17T07:33:59.864Z,51.20
2019-05-17T07:36:30.506Z,51.40
2019-05-17T07:39:00.630Z,51.70
2019-05-17T07:41:29.855Z,51.50
2019-05-17T07:44:00.425Z,51.60
2019-05-17T07:46:29.483Z,51.50
2019-05-17T07:49:00.401Z,51.60
2019-05-17T07:51:30.087Z,51.50
2019-05-17T07:53:59.736Z,51.00
2019-05-17T07:56:30.587Z,51.10
2019-05-17T07:59:00.091Z,49.90
2019-05-17T08:01:29.669Z,49.80
2019-05-17T08:04:00.663Z,49.20
2019-05-17T08:06:30.605Z,48.30
2019-05-17T08:09:03.549Z,47.80
2019-05-17T08:11:30.399Z,47.70
2019-05-17T08:13:59.781Z,47.30
2019-05-17T08:16:30.359Z,46.80
2019-05-17T08:19:00.377Z,46.80
2019-05-17T08:21:30.492Z,46.60
2019-05-17T08:24:00.104Z,46.30
2019-05-17T08:26:29.621Z,46.10
2019-05-17T08:29:00.776Z,45.70
2019-05-17T08:31:29.550Z,45.90
2019-05-17T08:34:00.078Z,45.60
2019-05-17T08:36:29.872Z,45.30
2019-05-17T08:38:59.699Z,45.50
2019-05-17T08:41:30.857Z,45.10
2019-05-17T08:44:00.727Z,44.90
2019-05-17T08:46:30.512Z,44.50
2019-05-17T08:49:00.257Z,44.70
2019-05-17T08:51:30.491Z,44.80
2019-05-17T08:54:00.014Z,44.40
2019-05-17T08:56:30.955Z,44.60
2019-05-17T08:59:00.788Z,44.80
2019-05-17T09:01:30.139Z,44.60
2019-05-17T09:03:59.882Z,44.40
2019-05-17T09:06:29.309Z,44.40
2019-05-17T09:09:00.638Z,44.60
2019-05-17T09:11:30.255Z,44.20
2019-05-17T09:14:01.886Z,43.90
2019-05-17T09:16:30.743Z,43.70
2019-05-17T09:19:00.477Z,43.50
2019-05-17T09:21:31.326Z,43.40
2019-05-17T09:23:59.857Z,43.30
2019-05-17T09:26:29.438Z,43.50
2019-05-17T09:29:01.390Z,43.50
2019-05-17T09:31:29.816Z,43.10
2019-05-17T09:34:00.279Z,42.80
2019-05-17T09:36:30.312Z,42.80
2019-05-17T09:39:00.125Z,42.30
2019-05-17T09:41:29.333Z,42.20
2019-05-17T09:44:09.527Z,42.00
2019-05-17T09:46:30.279Z,41.70
2019-05-17T09:49:01.096Z,41.50
2019-05-17T09:51:30.306Z,40.40
2019-05-17T09:54:00.130Z,39.60
2019-05-17T09:56:30.078Z,39.60
2019-05-17T09:59:00.424Z,39.90
2019-05-17T10:01:30.345Z,38.50
2019-05-17T10:03:59.889Z,38.70
2019-05-17T10:06:29.337Z,36.70
2019-05-17T10:09:00.252Z,35.70
2019-05-17T10:11:30.622Z,37.00
2019-05-17T10:14:01.124Z,38.10
2019-05-17T10:16:30.748Z,38.40
2019-05-17T10:19:00.102Z,37.60
2019-05-17T10:21:30.407Z,37.70
2019-05-17T10:24:00.139Z,37.90
2019-05-17T10:26:30.335Z,37.70
2019-05-17T10:28:59.533Z,37.90
2019-05-17T10:31:30.385Z,38.30
2019-05-17T10:34:00.881Z,38.20
2019-05-17T10:36:29.433Z,38.50
2019-05-17T10:38:59.250Z,38.20
2019-05-17T10:41:29.960Z,37.80
2019-05-17T10:43:58.626Z,37.00
2019-05-17T10:46:29.811Z,36.70
2019-05-17T10:48:57.458Z,36.40
2019-05-17T10:51:26.105Z,36.60
2019-05-17T10:53:54.754Z,36.00
2019-05-17T10:56:23.767Z,36.50
2019-05-17T10:58:52.751Z,35.70
2019-05-17T11:01:21.510Z,35.70
2019-05-17T11:03:50.423Z,35.00
2019-05-17T11:06:19.820Z,35.40
2019-05-17T11:08:50.165Z,35.70
2019-05-17T11:11:20.122Z,36.00
2019-05-17T11:13:49.051Z,35.90
2019-05-17T11:16:17.682Z,35.80
2019-05-17T11:18:46.509Z,36.10
2019-05-17T11:21:15.066Z,35.60
2019-05-17T11:23:43.633Z,35.70
2019-05-17T11:26:12.270Z,35.50
2019-05-17T11:28:40.914Z,35.60
2019-05-17T11:31:09.547Z,36.00
2019-05-17T11:33:38.098Z,36.20
2019-05-17T11:36:06.852Z,36.40
2019-05-17T11:38:36.402Z,36.30
2019-05-17T11:41:19.870Z,36.10
2019-05-17T11:43:35.364Z,36.10
2019-05-17T11:46:04.891Z,36.30
2019-05-17T11:48:33.480Z,36.10
2019-05-17T11:51:02.096Z,36.10
2019-05-17T11:53:30.685Z,35.80
2019-05-17T11:55:59.279Z,35.80
2019-05-17T11:58:27.946Z,35.90
2019-05-17T12:00:56.520Z,35.90
2019-05-17T12:03:25.099Z,35.60
2019-05-17T12:05:53.815Z,35.30
2019-05-17T12:08:22.434Z,35.50
2019-05-17T12:10:51.159Z,35.80
2019-05-17T12:13:22.595Z,36.00
2019-05-17T12:15:51.162Z,36.50
2019-05-17T12:18:19.714Z,37.00
2019-05-17T12:20:48.283Z,37.20
2019-05-17T12:23:17.328Z,38.10
2019-05-17T12:25:45.895Z,38.90
2019-05-17T12:28:14.964Z,40.00
2019-05-17T12:30:43.515Z,41.10
2019-05-17T12:33:12.097Z,41.00
2019-05-17T12:35:40.640Z,40.40
2019-05-17T12:38:09.194Z,40.60
2019-05-17T12:40:37.758Z,42.00
2019-05-17T12:43:06.854Z,44.90
2019-05-17T12:45:35.426Z,48.20
2019-05-17T12:48:04.064Z,49.80
2019-05-17T12:50:32.767Z,51.40
2019-05-17T12:53:01.326Z,52.70
2019-05-17T12:55:31.451Z,52.80
2019-05-17T12:58:00.038Z,53.10
2019-05-17T13:00:28.658Z,55.80
2019-05-17T13:02:57.215Z,55.50
2019-05-17T13:05:26.256Z,56.50
2019-05-17T13:07:54.873Z,57.60
2019-05-17T13:10:23.452Z,57.70
2019-05-17T13:12:52.055Z,58.10
2019-05-17T13:15:20.578Z,59.00
2019-05-17T13:17:49.205Z,60.90
2019-05-17T13:20:18.899Z,61.10
2019-05-17T13:22:48.074Z,61.20
2019-05-17T13:25:16.987Z,61.50
2019-05-17T13:27:45.681Z,61.30
2019-05-17T13:30:14.855Z,63.10
2019-05-17T13:32:43.386Z,64.10
2019-05-17T13:35:13.667Z,64.70
2019-05-17T13:37:42.210Z,65.00
2019-05-17T13:40:11.314Z,65.30
2019-05-17T13:42:40.332Z,63.80
2019-05-17T13:45:10.434Z,63.50
2019-05-17T13:47:38.991Z,66.00
2019-05-17T13:50:08.497Z,65.60
2019-05-17T13:52:37.072Z,65.10
2019-05-17T13:55:07.323Z,65.50
2019-05-17T13:57:36.643Z,66.10
2019-05-17T14:00:07.511Z,67.40
2019-05-17T14:02:36.126Z,66.90
2019-05-17T14:05:07.493Z,68.00
2019-05-17T14:07:36.107Z,68.80
2019-05-17T14:10:06.965Z,70.30
2019-05-17T14:12:35.537Z,71.30
2019-05-17T14:15:07.197Z,74.00
2019-05-17T14:17:35.728Z,75.30
2019-05-17T14:20:05.934Z,74.80
2019-05-17T14:22:36.079Z,74.00
2019-05-17T14:25:06.511Z,75.50
2019-05-17T14:27:35.086Z,75.30
2019-05-17T14:30:06.129Z,77.80
2019-05-17T14:32:34.834Z,77.10
2019-05-17T14:35:03.645Z,78.60
2019-05-17T14:37:32.246Z,78.80
2019-05-17T14:40:00.854Z,79.50
2019-05-17T14:42:29.432Z,80.30
2019-05-17T14:44:57.998Z,80.90
2019-05-17T14:47:26.708Z,82.20
2019-05-17T14:49:55.264Z,80.10
2019-05-17T14:52:23.819Z,79.90
2019-05-17T14:54:52.427Z,80.60
2019-05-17T14:57:21.065Z,80.70
2019-05-17T14:59:49.624Z,80.30
2019-05-17T15:02:18.283Z,81.90
2019-05-17T15:04:46.855Z,81.60
2019-05-17T15:07:15.540Z,80.40
2019-05-17T15:09:44.142Z,82.60
2019-05-17T15:12:27.288Z,81.20
2019-05-17T15:14:42.910Z,82.10
2019-05-17T15:17:11.628Z,82.90
2019-05-17T15:19:40.149Z,83.10
2019-05-17T15:22:08.950Z,84.70
2019-05-17T15:24:37.520Z,83.80
2019-05-17T15:27:06.466Z,84.50
2019-05-17T15:29:35.336Z,85.30
2019-05-17T15:32:03.988Z,84.50
2019-05-17T15:34:32.540Z,85.90
2019-05-17T15:37:01.171Z,84.70
2019-05-17T15:39:29.752Z,85.40
2019-05-17T15:41:58.312Z,85.10
2019-05-17T15:44:27.183Z,86.60
2019-05-17T15:46:56.247Z,86.40
2019-05-17T15:49:24.806Z,87.20
2019-05-17T15:51:53.436Z,87.80
2019-05-17T15:54:22.010Z,86.80
2019-05-17T15:58:56.072Z,86.50
2019-05-17T16:01:24.885Z,87.40
2019-05-17T16:03:53.394Z,87.60
2019-05-17T16:06:22.038Z,87.20
2019-05-17T16:08:50.722Z,87.20
2019-05-17T16:11:19.273Z,88.50
2019-05-17T16:13:47.825Z,88.60
2019-05-17T16:16:16.536Z,87.70
2019-05-17T16:18:45.168Z,87.50
2019-05-17T16:21:13.725Z,88.00
2019-05-17T16:23:42.328Z,88.40
2019-05-17T16:26:10.882Z,87.90
2019-05-17T16:28:39.446Z,88.90
2019-05-17T16:31:08.102Z,88.60
2019-05-17T16:33:36.663Z,87.70
2019-05-17T16:36:05.810Z,85.50
2019-05-17T16:38:34.547Z,86.70
2019-05-17T16:41:03.210Z,87.30
2019-05-17T16:43:31.790Z,87.60
2019-05-17T16:46:00.364Z,88.60
2019-05-17T16:48:28.932Z,86.80
2019-05-17T16:50:57.488Z,87.80
2019-05-17T16:53:26.062Z,87.70
2019-05-17T16:55:54.691Z,88.00
2019-05-17T16:58:23.254Z,87.80
2019-05-17T17:00:51.902Z,87.60
2019-05-17T17:03:20.474Z,87.80
2019-05-17T17:05:49.174Z,87.20
2019-05-17T17:08:18.224Z,86.50
2019-05-17T17:10:46.830Z,86.60
2019-05-17T17:13:15.404Z,87.80
2019-05-17T17:15:43.986Z,87.60
2019-05-17T17:18:12.534Z,88.20
2019-05-17T17:20:41.187Z,87.40
2019-05-17T17:23:09.763Z,85.50
2019-05-17T17:25:38.329Z,87.30
2019-05-17T17:28:06.959Z,86.80
2019-05-17T17:30:35.605Z,89.30
2019-05-17T17:33:04.431Z,87.60
2019-05-17T17:35:33.055Z,87.70
2019-05-17T17:38:01.631Z,87.60
2019-05-17T17:40:30.339Z,87.80
2019-05-17T17:42:58.874Z,87.90
2019-05-17T17:45:28.145Z,86.60
2019-05-17T17:47:56.683Z,87.40
2019-05-17T17:50:25.518Z,86.80
2019-05-17T17:52:54.178Z,87.10
2019-05-17T17:55:22.769Z,87.70
2019-05-17T17:57:51.558Z,87.60
2019-05-17T18:00:21.877Z,89.40
2019-05-17T18:02:51.059Z,88.10
2019-05-17T18:05:19.930Z,89.70
2019-05-17T18:07:48.582Z,90.00
2019-05-17T18:10:25.490Z,90.30
2019-05-17T18:12:54.147Z,89.80
2019-05-17T18:15:25.790Z,90.90
2019-05-17T18:17:54.339Z,90.60
2019-05-17T18:20:23.035Z,90.30
2019-05-17T18:22:51.659Z,90.50
2019-05-17T18:25:20.276Z,90.70
2019-05-17T18:27:48.943Z,90.80
2019-05-17T18:30:19.653Z,91.00
2019-05-17T18:32:48.159Z,90.80
2019-05-17T18:35:16.815Z,90.70
2019-05-17T18:37:45.507Z,91.10
2019-05-17T18:40:14.134Z,90.90
2019-05-17T18:42:42.817Z,91.00
2019-05-17T18:45:11.521Z,91.40
2019-05-17T18:47:40.094Z,91.10
2019-05-17T18:50:09.992Z,91.20
2019-05-17T18:52:38.618Z,91.80
2019-05-17T18:55:07.601Z,91.70
2019-05-17T18:57:36.266Z,91.60
2019-05-17T19:00:06.852Z,91.80
2019-05-17T19:02:35.542Z,91.80
2019-05-17T19:05:07.222Z,91.60
2019-05-17T19:07:35.818Z,91.90
2019-05-17T19:10:07.816Z,92.10
2019-05-17T19:12:36.577Z,91.90
2019-05-17T19:15:06.853Z,92.10
2019-05-17T19:17:35.409Z,92.60
2019-05-17T19:20:06.634Z,92.50
2019-05-17T19:22:35.353Z,92.40
2019-05-17T19:25:06.752Z,92.50
2019-05-17T19:27:35.839Z,92.50
2019-05-17T19:30:07.031Z,92.80
2019-05-17T19:32:35.684Z,93.10
2019-05-17T19:35:06.398Z,92.90
2019-05-17T19:37:34.976Z,93.10
2019-05-17T19:40:08.763Z,92.80
2019-05-17T19:42:37.427Z,93.20
2019-05-17T19:45:09.715Z,92.90
2019-05-17T19:47:38.344Z,93.10
2019-05-17T19:50:08.274Z,93.40
2019-05-17T19:52:36.841Z,93.10
2019-05-17T19:55:07.222Z,93.20
2019-05-17T19:57:36.730Z,93.30
2019-05-17T20:00:10.464Z,93.70
2019-05-17T20:02:39.101Z,93.30
2019-05-17T20:05:08.301Z,93.00
2019-05-17T20:07:39.177Z,93.20
2019-05-17T20:10:12.489Z,93.40
2019-05-17T20:12:41.042Z,92.60
2019-05-17T20:15:17.426Z,92.80
2019-05-17T20:17:41.654Z,92.80
2019-05-17T20:20:10.955Z,92.90
2019-05-17T20:22:39.554Z,92.70
2019-05-17T20:25:08.950Z,92.70
2019-05-17T20:27:37.709Z,92.50
2019-05-17T20:30:09.008Z,92.40
2019-05-17T20:32:38.059Z,92.40
2019-05-17T20:35:07.155Z,92.40
2019-05-17T20:37:35.716Z,92.20
2019-05-17T20:40:10.059Z,92.30
2019-05-17T20:42:38.767Z,92.00
2019-05-17T20:45:09.049Z,92.10
2019-05-17T20:47:37.662Z,92.40
2019-05-17T20:50:08.792Z,92.30
2019-05-17T20:52:37.423Z,91.90
2019-05-17T20:55:07.067Z,92.20
2019-05-17T20:57:35.602Z,92.40
2019-05-17T21:00:07.252Z,92.30
2019-05-17T21:02:35.809Z,92.40
2019-05-17T21:05:06.611Z,92.60
2019-05-17T21:07:35.187Z,92.20
2019-05-17T21:10:05.243Z,92.50
2019-05-17T21:12:33.813Z,92.30
2019-05-17T21:15:02.402Z,92.20
2019-05-17T21:17:30.972Z,92.20
2019-05-17T21:19:59.541Z,92.50
2019-05-17T21:22:28.096Z,92.50
2019-05-17T21:24:56.715Z,92.30
2019-05-17T21:27:25.255Z,92.50
2019-05-17T21:29:53.874Z,92.60
2019-05-17T21:32:22.688Z,92.40
2019-05-17T21:34:51.235Z,92.60
2019-05-17T21:37:19.836Z,93.20
2019-05-17T21:39:48.449Z,93.30
2019-05-17T21:42:17.059Z,93.30
2019-05-17T21:44:46.158Z,93.40
2019-05-17T21:47:16.298Z,93.30
2019-05-17T21:49:45.537Z,93.50
2019-05-17T21:52:14.137Z,93.90
2019-05-17T21:54:43.246Z,93.90
2019-05-17T21:57:11.787Z,93.60
2019-05-17T21:59:40.453Z,93.80
2019-05-17T22:02:09.716Z,94.10
2019-05-17T22:04:38.334Z,94.20
2019-05-17T22:07:06.961Z,94.10
2019-05-17T22:09:35.638Z,93.80
2019-05-17T22:12:05.958Z,94.10
2019-05-17T22:14:34.462Z,93.80
2019-05-17T22:17:03.025Z,93.80
2019-05-17T22:19:31.577Z,93.80
2019-05-17T22:22:00.143Z,93.80
2019-05-17T22:24:28.818Z,93.70
2019-05-17T22:26:57.359Z,94.00
2019-05-17T22:29:25.906Z,93.50
2019-05-17T22:31:54.507Z,93.70
2019-05-17T22:34:23.056Z,93.60
2019-05-17T22:36:51.604Z,94.00
2019-05-17T22:39:20.203Z,94.10
2019-05-17T22:41:48.730Z,93.90
2019-05-17T22:44:17.315Z,94.00
2019-05-17T22:46:45.858Z,93.60
2019-05-17T22:49:14.427Z,93.60
2019-05-17T22:51:42.988Z,93.80
2019-05-17T22:54:11.558Z,93.90
2019-05-17T22:56:40.112Z,93.80
2019-05-17T22:59:08.686Z,93.80
2019-05-17T23:01:37.250Z,93.50
2019-05-17T23:04:16.462Z,93.70
2019-05-17T23:06:44.983Z,93.40
2019-05-17T23:09:13.551Z,93.40
2019-05-17T23:11:42.212Z,93.40
2019-05-17T23:14:10.746Z,93.20
2019-05-17T23:16:50.905Z,93.20
2019-05-17T23:19:10.510Z,93.40
2019-05-17T23:21:39.122Z,93.50
2019-05-17T23:24:07.818Z,93.10
2019-05-17T23:26:36.398Z,92.90
2019-05-17T23:29:05.386Z,93.00
2019-05-17T23:31:33.941Z,92.80
2019-05-17T23:34:02.502Z,93.00
2019-05-17T23:36:35.586Z,92.90
2019-05-17T23:39:05.795Z,92.50
2019-05-17T23:41:34.490Z,92.40
2019-05-17T23:44:03.050Z,92.70
2019-05-17T23:46:31.787Z,92.70
2019-05-17T23:49:00.364Z,92.60
2019-05-17T23:51:28.899Z,92.00
2019-05-17T23:53:57.532Z,92.20
2019-05-17T23:56:26.078Z,92.40
2019-05-17T23:58:54.764Z,92.30
